createdAt,value
2019-04-22T00:00:57.673Z,9.54
2019-04-22T00:03:37.742Z,9.55
2019-04-22T00:06:24.244Z,9.53
2019-04-22T00:09:05.521Z,9.47
2019-04-22T00:11:48.662Z,9.39
2019-04-22T00:14:11.645Z,9.39
2019-04-22T00:16:51.932Z,9.64
2019-04-22T00:22:03.009Z,9.54
2019-04-22T00:24:35.502Z,9.48
2019-04-22T00:27:14.316Z,9.42
2019-04-22T00:32:19.475Z,9.31
2019-04-22T00:34:53.694Z,9.18
2019-04-22T00:37:28.823Z,9.18
2019-04-22T00:40:10.965Z,9.43
2019-04-22T00:42:41.344Z,9.43
2019-04-22T00:45:11.635Z,9.19
2019-04-22T00:47:44.827Z,9.10
2019-04-22T00:53:09.115Z,8.93
2019-04-22T00:55:37.876Z,8.84
2019-04-22T00:58:22.098Z,8.79
2019-04-22T01:00:45.519Z,8.61
2019-04-22T01:03:26.099Z,8.61
2019-04-22T01:05:55.374Z,8.76
2019-04-22T01:08:40.325Z,8.73
2019-04-22T01:11:13.337Z,8.63
2019-04-22T01:13:38.677Z,8.56
2019-04-22T01:16:17.007Z,8.51
2019-04-22T01:18:52.270Z,8.57
2019-04-22T01:21:28.931Z,8.49
2019-04-22T01:23:57.745Z,8.54
2019-04-22T01:26:33.114Z,8.41
2019-04-22T01:29:05.381Z,8.43
2019-04-22T01:31:32.481Z,8.42
2019-04-22T01:34:16.137Z,8.54
2019-04-22T01:36:57.653Z,8.42
2019-04-22T01:39:37.636Z,8.45
2019-04-22T01:42:10.492Z,8.45
2019-04-22T01:44:45.418Z,8.34
2019-04-22T01:47:29.972Z,8.32
2019-04-22T01:49:59.550Z,8.32
2019-04-22T01:52:41.581Z,8.26
2019-04-22T01:55:18.889Z,8.20
2019-04-22T01:57:43.269Z,8.20
2019-04-22T02:00:13.956Z,8.09
2019-04-22T02:02:59.730Z,8.23
2019-04-22T02:05:29.001Z,8.18
2019-04-22T02:08:04.426Z,8.30
2019-04-22T02:13:15.860Z,8.03
2019-04-22T02:15:53.811Z,7.99
2019-04-22T02:21:04.521Z,7.97
2019-04-22T02:28:45.880Z,7.77
2019-04-22T02:37:23.304Z,7.73
2019-04-22T02:40:08.020Z,7.66
2019-04-22T02:42:29.658Z,7.62
2019-04-22T02:45:10.025Z,7.55
2019-04-22T02:50:08.894Z,7.36
2019-04-22T02:53:26.831Z,7.36
2019-04-22T02:55:23.694Z,7.25
2019-04-22T02:58:01.863Z,7.42
2019-04-22T03:00:49.150Z,7.20
2019-04-22T03:06:05.814Z,7.13
2019-04-22T03:08:30.327Z,7.13
2019-04-22T03:11:07.125Z,7.07
2019-04-22T03:26:23.327Z,7.08
2019-04-22T03:28:51.225Z,7.08
2019-04-22T03:33:19.020Z,7.02
2019-04-22T03:38:14.290Z,6.90
2019-04-22T03:40:54.967Z,6.83
2019-04-22T03:43:35.178Z,6.81
2019-04-22T03:46:05.816Z,6.78
2019-04-22T03:48:38.399Z,6.76
2019-04-22T03:51:25.345Z,6.72
2019-04-22T03:53:58.174Z,6.74
2019-04-22T03:56:57.210Z,6.74
2019-04-22T03:58:58.701Z,6.71
2019-04-22T04:01:36.555Z,6.75
2019-04-22T04:06:57.041Z,6.70
2019-04-22T04:09:21.532Z,6.76
2019-04-22T04:17:02.448Z,6.78
2019-04-22T04:19:34.480Z,6.77
2019-04-22T04:22:07.986Z,6.82
2019-04-22T04:27:50.825Z,6.83
2019-04-22T04:30:03.142Z,6.90
2019-04-22T04:37:44.670Z,6.88
2019-04-22T04:43:07.606Z,6.84
2019-04-22T04:48:21.023Z,6.89
2019-04-22T04:51:11.830Z,6.76
2019-04-22T04:53:43.395Z,6.76
2019-04-22T04:56:17.685Z,6.81
2019-04-22T05:03:58.107Z,6.85
2019-04-22T05:06:27.592Z,6.88
2019-04-22T05:09:16.638Z,6.89
2019-04-22T05:11:42.943Z,6.95
2019-04-22T05:14:05.529Z,7.05
2019-04-22T05:16:43.019Z,7.08
2019-04-22T05:21:48.551Z,7.18
2019-04-22T05:29:34.341Z,7.45
2019-04-22T05:31:57.254Z,7.54
2019-04-22T05:34:29.531Z,7.66
2019-04-22T05:37:07.391Z,7.80
2019-04-22T05:39:35.957Z,7.80
2019-04-22T05:42:12.913Z,8.06
2019-04-22T05:44:49.699Z,8.18
2019-04-22T05:47:19.576Z,8.37
2019-04-22T05:49:55.275Z,8.44
2019-04-22T05:52:49.800Z,8.65
2019-04-22T05:55:12.586Z,8.65
2019-04-22T05:57:38.243Z,8.81
2019-04-22T06:00:26.825Z,8.95
2019-04-22T06:02:53.512Z,9.05
2019-04-22T06:05:29.515Z,9.10
2019-04-22T06:08:00.182Z,9.23
2019-04-22T06:10:39.303Z,9.31
2019-04-22T06:13:06.730Z,9.40
2019-04-22T06:15:37.638Z,9.53
2019-04-22T06:18:22.768Z,9.53
2019-04-22T06:20:59.532Z,9.67
2019-04-22T06:23:41.735Z,9.78
2019-04-22T06:28:51.587Z,10.07
2019-04-22T06:31:16.018Z,10.30
2019-04-22T06:33:54.476Z,10.46
2019-04-22T06:36:24.469Z,10.87
2019-04-22T06:38:55.211Z,11.08
2019-04-22T06:41:35.372Z,11.08
2019-04-22T06:44:10.860Z,11.28
2019-04-22T06:46:39.972Z,11.52
2019-04-22T06:49:33.519Z,11.83
2019-04-22T06:51:55.663Z,11.83
2019-04-22T06:54:28.855Z,12.06
2019-04-22T06:56:59.683Z,12.23
2019-04-22T06:59:36.562Z,12.38
2019-04-22T07:02:18.069Z,12.76
2019-04-22T07:04:47.233Z,12.76
2019-04-22T07:07:21.637Z,12.96
2019-04-22T07:10:03.522Z,13.45
2019-04-22T07:48:53.110Z,17.34
2019-04-22T10:05:52.115Z,23.83
2019-04-22T10:08:24.354Z,23.98
2019-04-22T10:11:00.882Z,23.98
2019-04-22T10:13:34.764Z,24.51
2019-04-22T10:16:10.472Z,24.51
2019-04-22T10:18:41.738Z,24.47
2019-04-22T10:21:19.063Z,24.61
2019-04-22T10:23:50.623Z,24.53
2019-04-22T10:26:28.686Z,24.58
2019-04-22T10:31:43.643Z,24.26
2019-04-22T10:34:15.680Z,24.54
2019-04-22T10:36:58.766Z,24.81
2019-04-22T10:40:02.331Z,25.15
2019-04-22T10:43:15.098Z,25.14
2019-04-22T10:45:50.287Z,25.48
2019-04-22T10:48:24.114Z,25.17
2019-04-22T10:51:04.584Z,25.09
2019-04-22T10:53:51.251Z,25.09
2019-04-22T10:56:43.116Z,25.63
2019-04-22T10:59:20.664Z,25.63
2019-04-22T11:01:55.060Z,25.55
2019-04-22T11:04:28.307Z,25.75
2019-04-22T11:07:07.118Z,25.98
2019-04-22T11:09:47.641Z,25.85
2019-04-22T11:12:22.427Z,26.10
2019-04-22T11:14:58.138Z,26.11
2019-04-22T11:17:31.418Z,26.21
2019-04-22T11:23:29.435Z,26.37
2019-04-22T11:26:01.894Z,26.65
2019-04-22T11:28:35.872Z,26.86
2019-04-22T11:32:15.684Z,27.02
2019-04-22T12:01:30.715Z,26.66
2019-04-22T12:04:05.067Z,27.04
2019-04-22T12:06:38.006Z,27.10
2019-04-22T12:09:15.301Z,27.29
2019-04-22T12:11:49.521Z,26.96
2019-04-22T12:14:25.704Z,26.73
2019-04-22T12:16:55.324Z,26.14
2019-04-22T12:19:23.184Z,26.74
2019-04-22T12:21:51.188Z,26.49
2019-04-22T12:24:19.301Z,26.27
2019-04-22T12:26:48.300Z,26.84
2019-04-22T12:29:15.588Z,26.48
2019-04-22T12:31:42.811Z,26.74
2019-04-22T12:34:11.315Z,26.74
2019-04-22T12:36:38.553Z,26.83
2019-04-22T12:39:09.680Z,27.04
2019-04-22T12:41:46.253Z,27.04
2019-04-22T12:44:15.048Z,27.52
2019-04-22T12:46:43.676Z,28.35
2019-04-22T12:49:12.136Z,28.60
2019-04-22T12:51:40.878Z,29.21
2019-04-22T12:54:08.837Z,28.25
2019-04-22T12:56:37.456Z,28.24
2019-04-22T12:59:05.735Z,28.05
2019-04-22T13:01:33.221Z,28.07
2019-04-22T13:04:05.792Z,28.48
2019-04-22T13:06:30.157Z,28.65
2019-04-22T13:08:57.850Z,28.50
2019-04-22T13:11:30.261Z,27.77
2019-04-22T13:13:54.861Z,27.79
2019-04-22T13:16:22.914Z,26.75
2019-04-22T13:19:01.126Z,27.51
2019-04-22T13:21:28.936Z,27.31
2019-04-22T13:23:57.117Z,28.09
2019-04-22T13:26:26.770Z,28.63
2019-04-22T13:28:54.817Z,29.00
2019-04-22T13:31:22.824Z,29.00
2019-04-22T13:33:53.671Z,30.32
2019-04-22T13:36:22.045Z,30.83
2019-04-22T13:38:49.188Z,32.94
2019-04-22T13:41:30.482Z,35.68
2019-04-22T13:43:47.153Z,35.68
2019-04-22T13:46:14.457Z,36.98
2019-04-22T13:49:08.762Z,36.14
2019-04-22T13:51:52.880Z,36.14
2019-04-22T13:54:46.883Z,37.96
2019-04-22T13:56:32.290Z,35.54
2019-04-22T13:58:52.832Z,35.54
2019-04-22T14:01:12.706Z,35.48
2019-04-22T14:04:00.693Z,36.02
2019-04-22T14:06:29.102Z,36.55
2019-04-22T14:08:56.466Z,38.11
2019-04-22T14:11:34.126Z,32.75
2019-04-22T14:13:56.747Z,33.37
2019-04-22T14:16:33.047Z,32.32
2019-04-22T14:19:00.241Z,32.32
2019-04-22T14:21:27.577Z,31.90
2019-04-22T14:23:54.519Z,31.26
2019-04-22T14:26:22.998Z,30.86
2019-04-22T14:28:50.490Z,30.86
2019-04-22T14:31:18.281Z,30.85
2019-04-22T14:33:47.268Z,30.85
2019-04-22T14:36:15.208Z,30.03
2019-04-22T14:38:43.825Z,29.77
2019-04-22T14:41:30.546Z,30.14
2019-04-22T14:44:49.467Z,30.78
2019-04-22T14:46:39.213Z,30.50
2019-04-22T14:49:02.838Z,30.04
2019-04-22T14:51:35.787Z,29.13
2019-04-22T14:54:04.083Z,29.96
2019-04-22T14:56:12.799Z,32.30
2019-04-22T14:58:40.766Z,34.38
2019-04-22T15:01:08.764Z,34.90
2019-04-22T15:03:39.908Z,35.75
2019-04-22T15:06:06.364Z,36.67
2019-04-22T15:08:35.056Z,36.95
2019-04-22T15:11:05.873Z,37.09
2019-04-22T15:13:33.897Z,36.39
2019-04-22T15:16:18.087Z,37.53
2019-04-22T15:19:09.551Z,38.03
2019-04-22T15:21:37.044Z,38.11
2019-04-22T15:24:25.485Z,35.07
2019-04-22T15:27:33.205Z,33.57
2019-04-22T15:30:01.298Z,33.76
2019-04-22T15:32:29.507Z,34.25
2019-04-22T15:35:13.470Z,35.21
2019-04-22T15:37:43.363Z,35.29
2019-04-22T15:40:11.319Z,35.29
2019-04-22T15:42:43.274Z,35.22
2019-04-22T15:45:12.028Z,34.54
2019-04-22T15:47:48.133Z,35.13
2019-04-22T15:50:18.887Z,35.45
2019-04-22T15:52:51.590Z,33.78
2019-04-22T15:55:16.451Z,33.93
2019-04-22T15:57:47.915Z,32.81
2019-04-22T16:01:08.752Z,33.52
2019-04-22T16:03:26.900Z,32.92
2019-04-22T16:05:54.396Z,31.83
2019-04-22T16:08:21.637Z,31.76
2019-04-22T16:10:48.449Z,29.75
2019-04-22T16:13:22.345Z,29.75
2019-04-22T16:15:44.821Z,28.11
2019-04-22T16:18:14.605Z,27.96
2019-04-22T16:20:40.604Z,27.85
2019-04-22T16:23:23.986Z,27.94
2019-04-22T16:25:55.487Z,27.65
2019-04-22T16:28:22.518Z,27.44
2019-04-22T16:31:03.994Z,27.34
2019-04-22T16:33:39.301Z,27.34
2019-04-22T16:36:04.930Z,27.33
2019-04-22T16:38:33.020Z,26.78
2019-04-22T16:41:01.011Z,26.54
2019-04-22T16:43:28.767Z,26.27
2019-04-22T16:45:56.043Z,25.95
2019-04-22T16:48:23.298Z,26.22
2019-04-22T16:50:51.171Z,25.75
2019-04-22T16:53:20.683Z,25.90
2019-04-22T16:55:48.931Z,25.57
2019-04-22T16:58:18.921Z,25.47
2019-04-22T17:01:06.891Z,25.47
2019-04-22T17:06:50.294Z,25.23
2019-04-22T17:09:25.868Z,25.46
2019-04-22T17:11:54.015Z,25.53
2019-04-22T17:14:29.698Z,25.15
2019-04-22T17:17:12.821Z,24.93
2019-04-22T17:19:39.893Z,25.03
2019-04-22T17:22:08.434Z,24.86
2019-04-22T17:24:45.800Z,24.79
2019-04-22T17:27:45.724Z,24.75
2019-04-22T17:30:14.789Z,24.55
2019-04-22T17:32:45.021Z,24.42
2019-04-22T17:35:12.419Z,24.18
2019-04-22T17:37:41.417Z,23.90
2019-04-22T17:40:25.472Z,23.90
2019-04-22T17:42:55.373Z,23.77
2019-04-22T17:45:38.982Z,23.66
2019-04-22T17:48:23.928Z,23.49
2019-04-22T17:50:53.890Z,23.49
2019-04-22T17:53:27.226Z,23.32
2019-04-22T17:55:55.520Z,23.21
2019-04-22T17:58:20.777Z,23.02
2019-04-22T18:00:44.502Z,23.02
2019-04-22T18:03:08.505Z,22.78
2019-04-22T18:05:37.347Z,22.69
2019-04-22T18:08:18.520Z,22.55
2019-04-22T18:10:42.561Z,22.39
2019-04-22T18:13:20.478Z,22.04
2019-04-22T18:15:51.526Z,22.04
2019-04-22T18:18:19.038Z,21.91
2019-04-22T18:20:35.322Z,21.72
2019-04-22T18:23:00.028Z,21.56
2019-04-22T18:25:43.007Z,21.45
2019-04-22T18:30:33.491Z,21.15
2019-04-22T18:33:12.658Z,21.15
2019-04-22T18:35:42.171Z,21.15
2019-04-22T18:38:27.180Z,21.04
2019-04-22T18:40:38.517Z,20.85
2019-04-22T18:43:13.587Z,20.77
2019-04-22T18:45:47.261Z,20.53
2019-04-22T18:48:05.336Z,20.48
2019-04-22T18:50:53.149Z,20.32
2019-04-22T18:53:29.961Z,20.15
2019-04-22T18:56:13.830Z,20.03
2019-04-22T18:58:30.271Z,20.01
2019-04-22T19:00:48.319Z,19.86
2019-04-22T19:03:20.269Z,19.92
2019-04-22T19:06:20.117Z,19.75
2019-04-22T19:08:36.799Z,19.45
2019-04-22T19:13:58.556Z,19.43
2019-04-22T19:16:24.404Z,19.51
2019-04-22T19:21:07.810Z,19.49
2019-04-22T19:23:32.029Z,19.37
2019-04-22T19:25:59.661Z,19.17
2019-04-22T19:28:35.809Z,19.25
2019-04-22T19:31:09.423Z,19.17
2019-04-22T19:33:34.953Z,19.17
2019-04-22T19:35:59.518Z,19.12
2019-04-22T19:38:23.351Z,19.21
2019-04-22T19:41:08.063Z,19.21
2019-04-22T19:43:32.880Z,18.97
2019-04-22T19:46:00.456Z,19.01
2019-04-22T19:48:39.255Z,18.95
2019-04-22T19:51:04.759Z,18.91
2019-04-22T19:53:33.556Z,18.76
2019-04-22T19:55:58.224Z,18.68
2019-04-22T19:58:27.782Z,18.49
2019-04-22T20:01:15.019Z,18.41
2019-04-22T20:04:12.105Z,18.33
2019-04-22T20:06:33.587Z,18.32
2019-04-22T20:09:06.010Z,18.18
2019-04-22T20:11:35.317Z,18.20
2019-04-22T20:14:07.749Z,18.26
2019-04-22T20:16:46.264Z,18.16
2019-04-22T20:19:26.851Z,18.13
2019-04-22T20:21:49.410Z,18.05
2019-04-22T20:24:06.984Z,17.95
2019-04-22T20:26:49.727Z,17.86
2019-04-22T20:29:22.805Z,17.81
2019-04-22T20:31:46.959Z,17.69
2019-04-22T20:34:20.886Z,17.51
2019-04-22T20:37:01.664Z,17.44
2019-04-22T20:39:06.647Z,17.44
2019-04-22T20:41:36.687Z,17.28
2019-04-22T20:44:16.412Z,17.28
2019-04-22T20:46:36.091Z,17.40
2019-04-22T20:49:04.790Z,17.46
2019-04-22T20:51:51.590Z,17.37
2019-04-22T20:54:07.440Z,17.17
2019-04-22T20:56:33.686Z,17.17
2019-04-22T20:59:01.964Z,17.26
2019-04-22T21:01:34.417Z,17.16
2019-04-22T21:03:56.740Z,17.12
2019-04-22T21:06:39.718Z,17.09
2019-04-22T21:09:12.022Z,17.12
2019-04-22T21:11:34.698Z,17.24
2019-04-22T21:14:04.482Z,17.36
2019-04-22T21:16:38.157Z,17.25
2019-04-22T21:19:18.636Z,17.13
2019-04-22T21:21:46.097Z,17.05
2019-04-22T21:24:14.131Z,16.97
2019-04-22T21:26:44.114Z,16.86
2019-04-22T21:29:12.685Z,16.74
2019-04-22T21:31:52.733Z,16.77
2019-04-22T21:34:20.603Z,16.77
2019-04-22T21:37:02.641Z,16.60
2019-04-22T21:39:26.360Z,16.43
2019-04-22T21:41:58.758Z,16.40
2019-04-22T21:44:25.954Z,16.34
2019-04-22T21:47:03.355Z,16.37
2019-04-22T21:49:37.198Z,16.59
2019-04-22T21:52:11.641Z,16.53
2019-04-22T21:54:36.599Z,16.53
2019-04-22T21:57:13.077Z,16.48
2019-04-22T21:59:34.649Z,16.91
2019-04-22T22:02:20.828Z,16.91
2019-04-22T22:04:38.444Z,17.02
2019-04-22T22:07:01.057Z,16.97
2019-04-22T22:09:45.968Z,16.97
2019-04-22T22:12:07.259Z,17.04
2019-04-22T22:14:40.357Z,17.19
2019-04-22T22:17:01.659Z,17.22
2019-04-22T22:19:39.360Z,17.22
2019-04-22T22:22:15.198Z,17.49
2019-04-22T22:24:39.957Z,17.59
2019-04-22T22:27:15.929Z,17.59
2019-04-22T22:29:55.843Z,17.73
2019-04-22T22:32:13.284Z,17.67
2019-04-22T22:35:10.117Z,17.55
2019-04-22T22:37:44.619Z,17.62
2019-04-22T22:40:00.944Z,17.65
2019-04-22T22:42:33.644Z,17.66
2019-04-22T22:45:02.330Z,17.71
2019-04-22T22:47:42.324Z,17.52
2019-04-22T22:50:12.881Z,17.53
2019-04-22T22:55:10.867Z,17.39
2019-04-22T22:57:41.455Z,17.39
2019-04-22T23:00:03.933Z,17.35
2019-04-22T23:02:36.312Z,17.26
2019-04-22T23:05:06.069Z,17.28
2019-04-22T23:07:37.479Z,17.34
2019-04-22T23:10:00.158Z,17.37
2019-04-22T23:12:40.595Z,17.40
2019-04-22T23:15:03.308Z,17.34
2019-04-22T23:17:16.208Z,17.23
2019-04-22T23:19:44.729Z,17.29
2019-04-22T23:22:20.594Z,17.23
2019-04-22T23:24:58.509Z,17.19
2019-04-22T23:27:44.579Z,16.89
2019-04-22T23:30:15.667Z,16.89
2019-04-22T23:32:51.782Z,17.06
2019-04-22T23:35:41.108Z,16.97
2019-04-22T23:38:10.733Z,16.93
2019-04-22T23:40:42.814Z,16.84
2019-04-22T23:43:19.312Z,16.88
2019-04-22T23:45:57.824Z,16.86
2019-04-22T23:48:20.647Z,16.74
2019-04-22T23:50:55.584Z,16.65
2019-04-22T23:53:46.043Z,16.58
2019-04-22T23:56:01.806Z,16.32
2019-04-22T23:58:44.802Z,16.32
